createdAt,value
2019-04-26T00:00:45.641Z,304.78
2019-04-26T00:01:45.657Z,304.22
2019-04-26T00:02:45.624Z,304.87
2019-04-26T00:03:45.634Z,304.17
2019-04-26T00:04:45.601Z,304.07
2019-04-26T00:05:45.588Z,303.81
2019-04-26T00:06:45.564Z,304.74
2019-04-26T00:07:45.580Z,304.45
2019-04-26T00:08:45.541Z,304.73
2019-04-26T00:09:45.530Z,304.45
2019-04-26T00:10:45.539Z,304.02
2019-04-26T00:11:45.520Z,304.73
2019-04-26T00:12:45.529Z,304.83
2019-04-26T00:13:45.508Z,304.23
2019-04-26T00:14:45.489Z,304.40
2019-04-26T00:15:45.478Z,304.59
2019-04-26T00:16:45.468Z,304.84
2019-04-26T00:17:45.948Z,304.39
2019-04-26T00:18:45.438Z,304.05
2019-04-26T00:19:45.444Z,304.26
2019-04-26T00:20:45.415Z,304.40
2019-04-26T00:21:45.420Z,304.28
2019-04-26T00:22:45.408Z,304.02
2019-04-26T00:23:45.398Z,304.54
2019-04-26T00:24:45.371Z,304.30
2019-04-26T00:25:45.366Z,304.50
2019-04-26T00:26:45.351Z,304.37
2019-04-26T00:27:45.335Z,304.88
2019-04-26T00:28:45.353Z,304.86
2019-04-26T00:29:45.318Z,304.38
2019-04-26T00:30:45.313Z,304.55
2019-04-26T00:31:45.291Z,304.90
2019-04-26T00:32:45.282Z,304.54
2019-04-26T00:33:45.298Z,304.41
2019-04-26T00:34:45.269Z,304.07
2019-04-26T00:35:47.795Z,304.29
2019-04-26T00:36:45.253Z,304.50
2019-04-26T00:37:45.234Z,304.26
2019-04-26T00:38:45.214Z,304.41
2019-04-26T00:39:45.225Z,305.06
2019-04-26T00:40:45.197Z,304.73
2019-04-26T00:41:45.185Z,304.70
2019-04-26T00:42:45.176Z,304.25
2019-04-26T00:43:45.173Z,304.49
2019-04-26T00:44:45.161Z,304.90
2019-04-26T00:45:45.143Z,304.49
2019-04-26T00:46:45.141Z,304.25
2019-04-26T00:47:45.121Z,304.14
2019-04-26T00:48:45.105Z,304.18
2019-04-26T00:49:45.187Z,303.92
2019-04-26T00:50:45.083Z,305.05
2019-04-26T00:51:45.080Z,304.30
2019-04-26T00:52:45.135Z,304.54
2019-04-26T00:53:45.050Z,304.53
2019-04-26T00:54:45.051Z,304.22
2019-04-26T00:55:45.076Z,304.52
2019-04-26T00:56:45.025Z,304.60
2019-04-26T00:57:45.012Z,304.43
2019-04-26T00:58:44.993Z,304.28
2019-04-26T00:59:44.984Z,305.17
2019-04-26T01:00:45.029Z,304.36
2019-04-26T01:01:44.969Z,304.28
2019-04-26T01:02:44.950Z,304.44
2019-04-26T01:03:44.944Z,304.60
2019-04-26T01:04:44.920Z,304.77
2019-04-26T01:05:44.916Z,304.68
2019-04-26T01:06:44.933Z,304.22
2019-04-26T01:07:44.891Z,304.56
2019-04-26T01:08:44.884Z,304.68
2019-04-26T01:09:44.871Z,305.00
2019-04-26T01:10:44.875Z,304.76
2019-04-26T01:11:44.864Z,304.55
2019-04-26T01:12:44.865Z,304.84
2019-04-26T01:13:44.833Z,304.61
2019-04-26T01:14:44.825Z,304.40
2019-04-26T01:15:44.836Z,305.01
2019-04-26T01:16:45.696Z,304.40
2019-04-26T01:17:44.786Z,305.13
2019-04-26T01:18:44.780Z,304.48
2019-04-26T01:19:44.767Z,304.90
2019-04-26T01:20:44.763Z,304.68
2019-04-26T01:21:44.773Z,304.45
2019-04-26T01:22:44.738Z,305.23
2019-04-26T01:23:44.725Z,305.04
2019-04-26T01:24:44.719Z,304.51
2019-04-26T01:25:44.699Z,304.32
2019-04-26T01:26:44.717Z,304.66
2019-04-26T01:27:44.677Z,304.88
2019-04-26T01:28:44.665Z,304.92
2019-04-26T01:29:44.718Z,304.91
2019-04-26T01:30:44.634Z,305.04
2019-04-26T01:31:44.651Z,304.71
2019-04-26T01:32:44.617Z,304.88
2019-04-26T01:33:44.627Z,304.83
2019-04-26T01:34:44.656Z,304.61
2019-04-26T01:35:44.597Z,304.95
2019-04-26T01:36:44.606Z,304.81
2019-04-26T01:37:44.579Z,304.85
2019-04-26T01:38:44.568Z,305.20
2019-04-26T01:39:44.553Z,304.19
2019-04-26T01:40:44.594Z,304.50
2019-04-26T01:41:44.557Z,304.96
2019-04-26T01:42:44.504Z,304.32
2019-04-26T01:43:44.502Z,305.18
2019-04-26T01:44:44.484Z,304.74
2019-04-26T01:45:44.475Z,305.15
2019-04-26T01:46:44.474Z,304.63
2019-04-26T01:47:44.488Z,304.55
2019-04-26T01:48:44.440Z,304.80
2019-04-26T01:49:44.461Z,304.77
2019-04-26T01:50:44.432Z,304.93
2019-04-26T01:51:44.416Z,304.99
2019-04-26T01:52:44.438Z,305.27
2019-04-26T01:53:44.412Z,304.27
2019-04-26T01:54:44.378Z,304.83
2019-04-26T01:55:44.376Z,305.32
2019-04-26T01:56:44.377Z,305.11
2019-04-26T01:57:44.348Z,304.35
2019-04-26T01:58:44.377Z,304.66
2019-04-26T01:59:44.338Z,305.24
2019-04-26T02:00:44.322Z,304.94
2019-04-26T02:01:44.307Z,305.40
2019-04-26T02:02:44.291Z,304.77
2019-04-26T02:03:44.308Z,305.18
2019-04-26T02:04:44.270Z,304.55
2019-04-26T02:05:44.272Z,304.65
2019-04-26T02:06:44.252Z,304.94
2019-04-26T02:07:44.235Z,305.14
2019-04-26T02:08:44.243Z,305.60
2019-04-26T02:09:44.219Z,304.67
2019-04-26T02:10:44.207Z,305.18
2019-04-26T02:11:44.211Z,305.06
2019-04-26T02:12:44.186Z,305.00
2019-04-26T02:13:44.195Z,305.16
2019-04-26T02:14:44.184Z,304.96
2019-04-26T02:15:44.160Z,304.93
2019-04-26T02:16:44.132Z,304.74
2019-04-26T02:17:44.116Z,304.82
2019-04-26T02:18:44.119Z,305.14
2019-04-26T02:19:44.102Z,304.84
2019-04-26T02:20:44.095Z,305.30
2019-04-26T02:21:44.109Z,305.13
2019-04-26T02:22:44.072Z,305.04
2019-04-26T02:23:44.083Z,305.07
2019-04-26T02:24:44.047Z,305.04
2019-04-26T02:25:44.033Z,304.57
2019-04-26T02:26:44.036Z,304.33
2019-04-26T02:27:44.007Z,305.12
2019-04-26T02:28:44.033Z,304.80
2019-04-26T02:29:43.992Z,305.29
2019-04-26T02:30:43.982Z,304.45
2019-04-26T02:31:43.990Z,305.38
2019-04-26T02:32:43.957Z,305.55
2019-04-26T02:33:43.950Z,305.36
2019-04-26T02:34:43.946Z,304.88
2019-04-26T02:35:43.928Z,305.25
2019-04-26T02:36:57.159Z,305.08
2019-04-26T02:37:44.900Z,304.72
2019-04-26T02:38:43.885Z,305.57
2019-04-26T02:39:43.901Z,305.70
2019-04-26T02:40:44.057Z,304.95
2019-04-26T02:41:43.856Z,305.01
2019-04-26T02:42:43.845Z,305.62
2019-04-26T02:43:43.836Z,305.23
2019-04-26T02:44:43.914Z,304.94
2019-04-26T02:45:43.813Z,305.08
2019-04-26T02:46:43.860Z,305.31
2019-04-26T02:47:43.808Z,305.40
2019-04-26T02:48:43.788Z,304.84
2019-04-26T02:49:43.776Z,305.49
2019-04-26T02:50:43.789Z,305.01
2019-04-26T02:51:43.766Z,305.33
2019-04-26T02:52:43.731Z,305.46
2019-04-26T02:53:43.727Z,305.42
2019-04-26T02:54:43.706Z,305.38
2019-04-26T02:55:43.727Z,305.35
2019-04-26T02:56:43.706Z,305.30
2019-04-26T02:57:43.688Z,305.48
2019-04-26T02:58:43.668Z,305.38
2019-04-26T02:59:43.672Z,305.20
2019-04-26T03:00:43.675Z,305.45
2019-04-26T03:01:43.633Z,305.33
2019-04-26T03:02:43.676Z,305.48
2019-04-26T03:03:43.618Z,304.92
2019-04-26T03:04:43.606Z,305.24
2019-04-26T03:05:43.593Z,305.23
2019-04-26T03:06:43.605Z,305.42
2019-04-26T03:07:43.568Z,305.28
2019-04-26T03:08:43.549Z,305.15
2019-04-26T03:09:43.543Z,305.54
2019-04-26T03:10:43.702Z,304.98
2019-04-26T03:11:43.534Z,304.92
2019-04-26T03:12:43.534Z,305.57
2019-04-26T03:13:43.818Z,304.69
2019-04-26T03:14:43.496Z,305.90
2019-04-26T03:15:43.483Z,305.45
2019-04-26T03:16:43.494Z,305.11
2019-04-26T03:17:43.465Z,305.36
2019-04-26T03:18:43.466Z,305.51
2019-04-26T03:19:43.443Z,305.69
2019-04-26T03:20:43.424Z,304.83
2019-04-26T03:21:43.447Z,305.45
2019-04-26T03:22:43.426Z,305.92
2019-04-26T03:23:57.019Z,305.40
2019-04-26T03:24:44.377Z,305.59
2019-04-26T03:25:43.389Z,305.30
2019-04-26T03:26:43.474Z,305.22
2019-04-26T03:27:43.581Z,305.67
2019-04-26T03:28:43.824Z,305.70
2019-04-26T03:29:43.795Z,305.54
2019-04-26T03:30:51.351Z,305.63
2019-04-26T03:31:52.447Z,305.32
2019-04-26T03:32:50.818Z,306.03
2019-04-26T03:33:53.115Z,305.20
2019-04-26T03:34:53.036Z,305.58
2019-04-26T03:35:55.963Z,305.01
2019-04-26T03:36:44.483Z,305.21
2019-04-26T03:37:44.538Z,305.87
2019-04-26T03:38:43.551Z,305.59
2019-04-26T03:39:44.488Z,305.39
2019-04-26T03:40:44.581Z,305.43
2019-04-26T03:41:44.443Z,305.58
2019-04-26T03:42:44.141Z,305.88
2019-04-26T03:43:44.533Z,305.86
2019-04-26T03:44:44.138Z,305.90
2019-04-26T03:45:44.520Z,305.35
2019-04-26T03:46:44.905Z,305.93
2019-04-26T03:47:45.808Z,305.52
2019-04-26T03:48:44.757Z,305.58
2019-04-26T03:49:44.275Z,305.25
2019-04-26T03:50:44.865Z,305.83
2019-04-26T03:51:44.893Z,305.68
2019-04-26T03:52:44.092Z,305.61
2019-04-26T03:53:44.569Z,305.21
2019-04-26T03:54:43.061Z,306.34
2019-04-26T03:55:43.701Z,305.72
2019-04-26T03:56:43.573Z,306.03
2019-04-26T03:57:44.877Z,305.61
2019-04-26T03:58:43.626Z,305.69
2019-04-26T03:59:44.101Z,305.69
2019-04-26T04:00:44.998Z,305.86
2019-04-26T04:01:44.320Z,306.03
2019-04-26T04:02:44.763Z,305.96
2019-04-26T04:03:45.164Z,305.77
2019-04-26T04:04:44.797Z,305.94
2019-04-26T04:05:44.270Z,305.56
2019-04-26T04:06:58.080Z,305.80
2019-04-26T04:07:49.394Z,305.49
2019-04-26T04:08:44.687Z,305.33
2019-04-26T04:09:42.928Z,305.65
2019-04-26T04:10:44.107Z,305.73
2019-04-26T04:11:44.333Z,306.11
2019-04-26T04:12:44.423Z,305.90
2019-04-26T04:13:47.941Z,305.98
2019-04-26T04:14:45.060Z,305.72
2019-04-26T04:15:44.708Z,305.85
2019-04-26T04:16:44.615Z,306.38
2019-04-26T04:17:45.356Z,306.14
2019-04-26T04:18:44.172Z,305.59
2019-04-26T04:19:43.893Z,305.88
2019-04-26T04:20:44.376Z,305.65
2019-04-26T04:21:44.459Z,305.96
2019-04-26T04:22:43.972Z,305.16
2019-04-26T04:23:43.525Z,305.63
2019-04-26T04:24:44.609Z,305.77
2019-04-26T04:25:44.133Z,305.61
2019-04-26T04:26:43.433Z,305.77
2019-04-26T04:27:44.030Z,305.66
2019-04-26T04:28:44.068Z,305.91
2019-04-26T04:29:50.012Z,306.04
2019-04-26T04:30:45.432Z,306.42
2019-04-26T04:31:44.168Z,306.26
2019-04-26T04:32:43.988Z,306.60
2019-04-26T04:33:43.636Z,306.83
2019-04-26T04:34:43.997Z,306.15
2019-04-26T04:35:45.340Z,306.24
2019-04-26T04:36:45.898Z,306.41
2019-04-26T04:38:01.793Z,306.19
2019-04-26T04:38:44.685Z,305.87
2019-04-26T04:39:44.317Z,306.00
2019-04-26T04:40:42.743Z,305.99
2019-04-26T04:41:42.987Z,306.33
2019-04-26T04:42:43.569Z,305.99
2019-04-26T04:43:44.362Z,306.13
2019-04-26T04:44:44.388Z,306.02
2019-04-26T04:45:44.016Z,306.14
2019-04-26T04:46:43.865Z,305.73
2019-04-26T04:47:45.171Z,305.97
2019-04-26T04:48:43.346Z,306.19
2019-04-26T04:49:42.986Z,306.05
2019-04-26T04:50:43.390Z,305.91
2019-04-26T04:51:44.197Z,306.26
2019-04-26T04:52:43.207Z,306.25
2019-04-26T04:53:43.407Z,306.37
2019-04-26T04:54:43.271Z,306.33
2019-04-26T04:55:43.467Z,305.92
2019-04-26T04:56:43.514Z,306.52
2019-04-26T04:57:42.363Z,306.22
2019-04-26T04:58:43.580Z,306.11
2019-04-26T04:59:42.331Z,306.24
2019-04-26T05:00:43.048Z,306.23
2019-04-26T05:01:42.834Z,306.48
2019-04-26T05:02:43.503Z,306.47
2019-04-26T05:03:42.360Z,305.94
2019-04-26T05:04:42.733Z,306.21
2019-04-26T05:05:43.482Z,306.30
2019-04-26T05:06:42.707Z,306.25
2019-04-26T05:07:43.849Z,306.29
2019-04-26T05:08:42.902Z,306.79
2019-04-26T05:09:43.892Z,306.55
2019-04-26T05:10:42.212Z,306.92
2019-04-26T05:11:42.201Z,306.71
2019-04-26T05:12:42.223Z,306.85
2019-04-26T05:13:42.219Z,306.50
2019-04-26T05:14:42.164Z,306.61
2019-04-26T05:15:42.145Z,306.45
2019-04-26T05:16:42.141Z,306.52
2019-04-26T05:17:42.139Z,306.62
2019-04-26T05:18:42.118Z,306.67
2019-04-26T05:19:42.136Z,306.57
2019-04-26T05:20:42.090Z,306.69
2019-04-26T05:21:42.080Z,305.96
2019-04-26T05:22:42.079Z,306.69
2019-04-26T05:23:42.085Z,306.81
2019-04-26T05:24:42.062Z,306.81
2019-04-26T05:25:42.069Z,305.83
2019-04-26T05:26:42.022Z,306.61
2019-04-26T05:27:42.017Z,306.70
2019-04-26T05:28:42.015Z,307.05
2019-04-26T05:29:42.018Z,306.40
2019-04-26T05:30:42.020Z,306.74
2019-04-26T05:31:41.990Z,306.50
2019-04-26T05:32:41.969Z,306.71
2019-04-26T05:33:41.955Z,307.33
2019-04-26T05:34:41.967Z,306.64
2019-04-26T05:35:42.324Z,306.19
2019-04-26T05:36:41.935Z,306.74
2019-04-26T05:37:42.045Z,306.97
2019-04-26T05:38:41.923Z,306.84
2019-04-26T05:39:41.913Z,306.56
2019-04-26T05:40:41.894Z,306.78
2019-04-26T05:41:41.912Z,307.37
2019-04-26T05:42:41.885Z,306.45
2019-04-26T05:43:41.893Z,305.49
2019-04-26T05:44:41.857Z,306.51
2019-04-26T05:45:41.853Z,306.32
2019-04-26T05:46:42.710Z,306.98
2019-04-26T05:47:41.875Z,306.68
2019-04-26T05:48:41.815Z,306.61
2019-04-26T05:49:41.806Z,306.74
2019-04-26T05:50:41.795Z,306.75
2019-04-26T05:51:41.827Z,306.95
2019-04-26T05:52:41.864Z,307.44
2019-04-26T05:53:41.733Z,307.00
2019-04-26T05:54:41.733Z,306.26
2019-04-26T05:55:41.722Z,306.25
2019-04-26T05:56:41.730Z,306.71
2019-04-26T05:57:41.698Z,305.84
2019-04-26T05:58:41.713Z,305.86
2019-04-26T05:59:41.669Z,306.15
2019-04-26T06:00:41.660Z,305.62
2019-04-26T06:01:41.653Z,305.86
2019-04-26T06:02:41.647Z,305.77
2019-04-26T06:03:41.649Z,305.74
2019-04-26T06:04:41.610Z,305.64
2019-04-26T06:05:41.692Z,305.86
2019-04-26T06:06:41.599Z,305.31
2019-04-26T06:07:41.587Z,305.64
2019-04-26T06:08:41.614Z,305.76
2019-04-26T06:09:41.605Z,305.90
2019-04-26T06:10:41.548Z,306.09
2019-04-26T06:11:41.538Z,305.78
2019-04-26T06:12:41.559Z,306.02
2019-04-26T06:13:41.530Z,306.00
2019-04-26T06:14:41.520Z,305.67
2019-04-26T06:15:41.500Z,305.74
2019-04-26T06:16:41.497Z,305.79
2019-04-26T06:17:41.481Z,305.48
2019-04-26T06:18:41.481Z,305.48
2019-04-26T06:19:41.475Z,305.58
2019-04-26T06:20:41.452Z,305.62
2019-04-26T06:21:41.434Z,304.93
2019-04-26T06:22:41.413Z,306.18
2019-04-26T06:23:41.405Z,305.39
2019-04-26T06:24:41.412Z,306.04
2019-04-26T06:25:41.393Z,305.68
2019-04-26T06:26:41.397Z,305.38
2019-04-26T06:27:41.375Z,306.01
2019-04-26T06:28:41.356Z,305.83
2019-04-26T06:29:41.351Z,305.98
2019-04-26T06:30:45.691Z,306.43
2019-04-26T06:31:41.330Z,306.33
2019-04-26T06:32:42.389Z,305.98
2019-04-26T06:33:41.302Z,306.42
2019-04-26T06:34:41.294Z,306.13
2019-04-26T06:35:41.302Z,306.39
2019-04-26T06:36:41.283Z,306.37
2019-04-26T06:37:41.271Z,306.39
2019-04-26T06:38:44.072Z,306.61
2019-04-26T06:39:41.231Z,306.24
2019-04-26T06:40:41.968Z,305.85
2019-04-26T06:41:41.224Z,306.30
2019-04-26T06:42:41.199Z,305.84
2019-04-26T06:43:41.184Z,305.98
2019-04-26T06:44:41.178Z,305.99
2019-04-26T06:45:41.167Z,306.21
2019-04-26T06:46:41.194Z,306.04
2019-04-26T06:47:41.162Z,306.50
2019-04-26T06:48:41.143Z,306.62
2019-04-26T06:49:41.148Z,305.98
2019-04-26T06:50:41.105Z,306.42
2019-04-26T06:51:41.108Z,306.27
2019-04-26T06:52:41.138Z,306.15
2019-04-26T06:53:41.091Z,306.34
2019-04-26T06:54:41.078Z,306.32
2019-04-26T06:55:41.061Z,306.23
2019-04-26T06:56:41.046Z,305.98
2019-04-26T06:57:41.061Z,306.06
2019-04-26T06:58:41.038Z,306.83
2019-04-26T06:59:41.022Z,306.37
2019-04-26T07:00:41.019Z,306.39
2019-04-26T07:01:41.006Z,307.20
2019-04-26T07:02:40.984Z,306.67
2019-04-26T07:03:41.001Z,306.80
2019-04-26T07:04:40.980Z,306.87
2019-04-26T07:05:40.962Z,306.59
2019-04-26T07:06:40.954Z,305.93
2019-04-26T07:07:40.954Z,306.17
2019-04-26T07:08:40.939Z,305.95
2019-04-26T07:09:40.908Z,305.74
2019-04-26T07:10:40.913Z,305.38
2019-04-26T07:11:40.901Z,305.58
2019-04-26T07:12:40.894Z,305.68
2019-04-26T07:13:40.915Z,305.40
2019-04-26T07:14:40.852Z,304.81
2019-04-26T07:15:40.851Z,304.87
2019-04-26T07:16:40.827Z,304.37
2019-04-26T07:17:40.824Z,304.24
2019-04-26T07:18:40.823Z,303.96
2019-04-26T07:19:40.828Z,303.65
2019-04-26T07:20:40.806Z,303.70
2019-04-26T07:21:40.793Z,302.91
2019-04-26T07:22:40.767Z,302.99
2019-04-26T07:23:40.752Z,302.77
2019-04-26T07:24:40.787Z,302.20
2019-04-26T07:25:40.790Z,302.49
2019-04-26T07:26:40.732Z,302.61
2019-04-26T07:27:40.715Z,302.03
2019-04-26T07:28:40.706Z,302.67
2019-04-26T07:29:40.706Z,302.56
2019-04-26T07:30:40.712Z,302.48
2019-04-26T07:31:40.677Z,302.62
2019-04-26T07:32:40.669Z,302.25
2019-04-26T07:33:40.657Z,302.36
2019-04-26T07:34:40.632Z,302.33
2019-04-26T07:35:41.317Z,302.61
2019-04-26T07:36:40.638Z,302.31
2019-04-26T07:37:40.611Z,302.56
2019-04-26T07:38:40.633Z,301.94
2019-04-26T07:39:40.612Z,303.16
2019-04-26T07:40:40.574Z,303.12
2019-04-26T07:41:40.610Z,303.22
2019-04-26T07:42:40.570Z,303.47
2019-04-26T07:43:41.259Z,302.55
2019-04-26T07:44:40.541Z,303.95
2019-04-26T07:45:40.543Z,303.45
2019-04-26T07:46:40.536Z,304.11
2019-04-26T07:47:40.503Z,304.68
2019-04-26T07:48:40.494Z,303.61
2019-04-26T07:49:40.485Z,304.44
2019-04-26T07:50:40.469Z,303.60
2019-04-26T07:51:40.490Z,303.41
2019-04-26T07:52:40.464Z,303.98
2019-04-26T07:53:40.443Z,303.30
2019-04-26T07:54:40.436Z,303.56
2019-04-26T07:55:40.427Z,304.21
2019-04-26T07:56:40.414Z,303.60
2019-04-26T07:57:40.422Z,303.35
2019-04-26T07:58:40.397Z,303.43
2019-04-26T07:59:40.374Z,303.29
2019-04-26T08:00:45.033Z,303.34
2019-04-26T08:01:41.376Z,303.45
2019-04-26T08:02:40.346Z,302.43
2019-04-26T08:03:40.351Z,302.27
2019-04-26T08:04:40.332Z,302.14
2019-04-26T08:05:40.326Z,301.78
2019-04-26T08:06:40.304Z,301.90
2019-04-26T08:07:40.305Z,301.55
2019-04-26T08:08:40.273Z,302.48
2019-04-26T08:09:40.260Z,301.99
2019-04-26T08:10:40.264Z,302.54
2019-04-26T08:11:40.253Z,302.01
2019-04-26T08:12:40.259Z,301.94
2019-04-26T08:13:40.223Z,301.42
2019-04-26T08:14:40.223Z,301.68
2019-04-26T08:15:40.212Z,301.75
2019-04-26T08:16:40.204Z,301.47
2019-04-26T08:17:40.215Z,301.48
2019-04-26T08:18:40.171Z,301.55
2019-04-26T08:19:40.159Z,301.76
2019-04-26T08:20:40.149Z,301.56
2019-04-26T08:21:42.525Z,301.52
2019-04-26T08:22:41.200Z,301.69
2019-04-26T08:23:42.181Z,302.15
2019-04-26T08:24:40.120Z,302.39
2019-04-26T08:25:40.109Z,302.67
2019-04-26T08:26:40.075Z,302.43
2019-04-26T08:27:40.109Z,302.26
2019-04-26T08:28:40.155Z,302.00
2019-04-26T08:29:40.064Z,302.95
2019-04-26T08:30:40.616Z,302.76
2019-04-26T08:31:40.027Z,303.61
2019-04-26T08:32:40.013Z,303.37
2019-04-26T08:33:40.407Z,303.21
2019-04-26T08:34:40.031Z,303.36
2019-04-26T08:35:40.001Z,303.34
2019-04-26T08:36:39.984Z,303.80
2019-04-26T08:37:39.975Z,304.04
2019-04-26T08:38:39.958Z,303.80
2019-04-26T08:39:45.711Z,304.36
2019-04-26T08:40:40.952Z,304.41
2019-04-26T08:41:40.213Z,304.73
2019-04-26T08:42:39.921Z,304.86
2019-04-26T08:43:39.915Z,305.14
2019-04-26T08:44:39.908Z,305.86
2019-04-26T08:45:40.550Z,305.66
2019-04-26T08:46:39.886Z,305.46
2019-04-26T08:47:39.877Z,305.70
2019-04-26T08:48:39.861Z,305.66
2019-04-26T08:49:40.079Z,306.25
2019-04-26T08:50:42.211Z,306.70
2019-04-26T08:51:39.813Z,306.33
2019-04-26T08:52:39.809Z,306.00
2019-04-26T08:53:39.810Z,305.27
2019-04-26T08:54:39.821Z,305.61
2019-04-26T08:55:39.786Z,305.23
2019-04-26T08:56:39.797Z,305.50
2019-04-26T08:57:39.774Z,304.78
2019-04-26T08:58:39.747Z,305.08
2019-04-26T08:59:39.768Z,304.55
2019-04-26T09:00:39.742Z,303.83
2019-04-26T09:01:41.990Z,303.97
2019-04-26T09:02:39.710Z,303.67
2019-04-26T09:03:39.709Z,302.86
2019-04-26T09:04:39.712Z,302.29
2019-04-26T09:05:39.699Z,301.97
2019-04-26T09:06:39.688Z,301.02
2019-04-26T09:07:39.679Z,300.33
2019-04-26T09:08:43.477Z,299.65
2019-04-26T09:09:40.655Z,299.75
2019-04-26T09:10:43.321Z,299.52
2019-04-26T09:11:39.625Z,298.66
2019-04-26T09:12:39.613Z,298.31
2019-04-26T09:13:39.611Z,298.40
2019-04-26T09:14:39.598Z,297.90
2019-04-26T09:15:40.709Z,297.83
2019-04-26T09:16:49.851Z,297.45
2019-04-26T09:17:40.582Z,297.51
2019-04-26T09:18:43.634Z,298.12
2019-04-26T09:19:40.555Z,298.54
2019-04-26T09:20:42.894Z,299.84
2019-04-26T09:21:39.565Z,299.67
2019-04-26T09:22:39.527Z,299.96
2019-04-26T09:23:40.445Z,301.06
2019-04-26T09:24:39.509Z,301.21
2019-04-26T09:25:39.660Z,301.53
2019-04-26T09:26:42.359Z,302.40
2019-04-26T09:27:40.492Z,302.46
2019-04-26T09:28:39.469Z,301.90
2019-04-26T09:29:39.453Z,302.06
2019-04-26T09:30:42.389Z,301.72
2019-04-26T09:31:39.421Z,301.49
2019-04-26T09:32:39.439Z,300.15
2019-04-26T09:33:39.413Z,300.82
2019-04-26T09:34:41.247Z,300.66
2019-04-26T09:35:39.414Z,299.74
2019-04-26T09:36:39.372Z,299.73
2019-04-26T09:37:39.441Z,299.78
2019-04-26T09:38:39.361Z,298.67
2019-04-26T09:39:41.685Z,297.73
2019-04-26T09:40:39.346Z,298.70
2019-04-26T09:41:39.333Z,298.33
2019-04-26T09:42:40.876Z,298.02
2019-04-26T09:43:39.328Z,298.09
2019-04-26T09:44:41.449Z,296.64
2019-04-26T09:45:39.282Z,297.42
2019-04-26T09:46:39.290Z,296.77
2019-04-26T09:47:39.269Z,297.01
2019-04-26T09:48:39.270Z,296.80
2019-04-26T09:49:41.258Z,296.71
2019-04-26T09:50:39.237Z,297.53
2019-04-26T09:51:40.439Z,297.59
2019-04-26T09:52:39.229Z,296.75
2019-04-26T09:53:39.568Z,296.79
2019-04-26T09:54:39.190Z,296.70
2019-04-26T09:55:39.192Z,297.85
2019-04-26T09:56:39.232Z,297.70
2019-04-26T09:57:39.164Z,297.52
2019-04-26T09:58:39.199Z,297.51
2019-04-26T09:59:40.014Z,297.77
2019-04-26T10:00:39.143Z,297.25
2019-04-26T10:01:39.122Z,297.60
2019-04-26T10:02:39.110Z,297.92
2019-04-26T10:03:39.203Z,297.99
2019-04-26T10:04:39.127Z,297.22
2019-04-26T10:05:39.091Z,297.96
2019-04-26T10:06:39.065Z,297.50
2019-04-26T10:07:39.068Z,297.41
2019-04-26T10:08:39.049Z,296.53
2019-04-26T10:09:39.038Z,297.01
2019-04-26T10:10:39.057Z,297.27
2019-04-26T10:11:39.543Z,298.20
2019-04-26T10:12:39.011Z,298.62
2019-04-26T10:13:39.008Z,298.76
2019-04-26T10:14:39.008Z,298.90
2019-04-26T10:15:39.220Z,299.68
2019-04-26T10:16:42.192Z,299.69
2019-04-26T10:17:38.953Z,299.77
2019-04-26T10:18:38.968Z,300.70
2019-04-26T10:19:38.948Z,301.04
2019-04-26T10:20:38.958Z,300.56
2019-04-26T10:21:38.920Z,300.56
2019-04-26T10:22:38.913Z,300.01
2019-04-26T10:23:38.922Z,299.71
2019-04-26T10:24:38.923Z,299.62
2019-04-26T10:25:38.889Z,299.58
2019-04-26T10:26:38.866Z,299.91
2019-04-26T10:27:40.867Z,299.58
2019-04-26T10:28:38.843Z,299.17
2019-04-26T10:29:38.852Z,299.12
2019-04-26T10:30:42.364Z,299.02
2019-04-26T10:31:38.837Z,298.93
2019-04-26T10:32:38.832Z,298.85
2019-04-26T10:33:38.954Z,299.39
2019-04-26T10:34:42.639Z,299.24
2019-04-26T10:35:39.788Z,299.40
2019-04-26T10:36:38.809Z,298.99
2019-04-26T10:37:39.845Z,298.58
2019-04-26T10:38:38.796Z,298.25
2019-04-26T10:39:38.787Z,299.09
2019-04-26T10:40:38.747Z,298.36
2019-04-26T10:41:38.747Z,297.98
2019-04-26T10:42:38.734Z,297.23
2019-04-26T10:43:38.724Z,297.40
2019-04-26T10:44:39.921Z,297.35
2019-04-26T10:45:38.738Z,297.03
2019-04-26T10:46:38.930Z,296.37
2019-04-26T10:47:39.889Z,296.79
2019-04-26T10:48:41.230Z,296.60
2019-04-26T10:49:39.532Z,295.77
2019-04-26T10:50:39.476Z,295.93
2019-04-26T10:51:41.842Z,295.47
2019-04-26T10:52:39.732Z,294.97
2019-04-26T10:53:39.557Z,293.93
2019-04-26T10:54:41.038Z,294.03
2019-04-26T10:55:39.294Z,294.87
2019-04-26T10:56:39.480Z,293.84
2019-04-26T10:57:39.551Z,293.33
2019-04-26T10:58:39.467Z,293.17
2019-04-26T10:59:39.930Z,292.54
2019-04-26T11:00:40.402Z,292.80
2019-04-26T11:01:39.357Z,292.15
2019-04-26T11:02:39.519Z,292.46
2019-04-26T11:03:39.451Z,291.94
2019-04-26T11:04:41.458Z,291.21
2019-04-26T11:05:39.183Z,291.42
2019-04-26T11:06:39.211Z,291.03
2019-04-26T11:07:39.531Z,291.15
2019-04-26T11:08:38.996Z,290.65
2019-04-26T11:09:39.150Z,290.53
2019-04-26T11:10:47.974Z,288.90
2019-04-26T11:11:39.949Z,288.32
2019-04-26T11:12:39.691Z,289.21
2019-04-26T11:13:39.345Z,289.46
2019-04-26T11:14:39.319Z,288.80
2019-04-26T11:15:39.095Z,288.14
2019-04-26T11:16:41.112Z,288.41
2019-04-26T11:17:39.399Z,289.06
2019-04-26T11:18:39.418Z,288.10
2019-04-26T11:19:39.418Z,287.70
2019-04-26T11:20:41.512Z,287.84
2019-04-26T11:21:40.111Z,287.76
2019-04-26T11:22:39.322Z,287.62
2019-04-26T11:23:41.027Z,287.93
2019-04-26T11:24:40.116Z,287.59
2019-04-26T11:25:39.245Z,288.14
2019-04-26T11:26:38.993Z,288.22
2019-04-26T11:27:40.226Z,287.63
2019-04-26T11:28:41.873Z,288.17
2019-04-26T11:29:39.354Z,288.36
2019-04-26T11:30:39.126Z,288.29
2019-04-26T11:31:38.787Z,288.65
2019-04-26T11:32:39.071Z,288.92
2019-04-26T11:33:44.637Z,288.39
2019-04-26T11:34:42.766Z,289.01
2019-04-26T11:35:38.899Z,288.79
2019-04-26T11:36:41.810Z,289.01
2019-04-26T11:37:39.104Z,288.89
2019-04-26T11:38:39.269Z,288.99
2019-04-26T11:39:40.450Z,289.30
2019-04-26T11:40:39.142Z,289.49
2019-04-26T11:41:39.162Z,288.41
2019-04-26T11:42:41.850Z,288.65
2019-04-26T11:43:39.979Z,288.75
2019-04-26T11:44:39.335Z,288.68
2019-04-26T11:45:38.959Z,288.53
2019-04-26T11:46:44.490Z,289.16
2019-04-26T11:47:54.276Z,289.88
2019-04-26T11:48:39.977Z,289.46
2019-04-26T11:49:41.559Z,290.08
2019-04-26T11:50:38.752Z,289.10
2019-04-26T11:51:38.704Z,289.38
2019-04-26T11:52:38.883Z,289.32
2019-04-26T11:53:40.646Z,289.49
2019-04-26T11:54:39.825Z,288.90
2019-04-26T11:55:38.971Z,288.64
2019-04-26T11:56:38.863Z,288.83
2019-04-26T11:57:40.023Z,288.45
2019-04-26T11:58:38.087Z,288.46
2019-04-26T11:59:38.099Z,288.21
2019-04-26T12:00:38.058Z,288.68
2019-04-26T12:01:40.440Z,288.31
2019-04-26T12:02:38.042Z,288.24
2019-04-26T12:03:38.061Z,288.51
2019-04-26T12:04:38.066Z,288.45
2019-04-26T12:05:38.015Z,288.75
2019-04-26T12:06:38.003Z,288.77
2019-04-26T12:07:37.984Z,288.67
2019-04-26T12:08:37.982Z,289.05
2019-04-26T12:09:37.975Z,288.56
2019-04-26T12:10:40.307Z,289.15
2019-04-26T12:11:48.924Z,289.40
2019-04-26T12:12:38.947Z,289.21
2019-04-26T12:13:37.930Z,289.58
2019-04-26T12:14:37.935Z,289.42
2019-04-26T12:15:39.072Z,289.59
2019-04-26T12:16:47.993Z,289.54
2019-04-26T12:17:38.904Z,290.74
2019-04-26T12:18:40.278Z,290.02
2019-04-26T12:19:38.873Z,289.82
2019-04-26T12:20:37.866Z,290.29
2019-04-26T12:21:37.875Z,290.73
2019-04-26T12:22:39.420Z,291.06
2019-04-26T12:23:38.836Z,290.37
2019-04-26T12:24:37.834Z,291.09
2019-04-26T12:25:38.765Z,291.38
2019-04-26T12:26:43.130Z,291.50
2019-04-26T12:27:38.871Z,292.28
2019-04-26T12:28:40.099Z,292.63